Airfield :
LOGIN :

Register | Disclaimer

   EN    FR    IT 

 










Legend :    VFR   Marginal VFR   IFR   Intensive IFR   Very Intensive IFR
Visi :
Ceiling :
>= 8 km
>= 3000ft
5 to 8 km
1000 to 3000 ft
1500m to 5 km
500 to 1000 ft
800 to 1500m
200 to 500 ft
< 800m
< 200 ft
Symbols :   Thunderstorms  Fog  Heavy snow  Heavy precipitations  Wind > 20 kt
SIGMETs :     Misc.  Thunderstorms  Icing  Turbulence  Mountain Waves  Volcanic Ashes






- Airport Elevation : 204 ft
- IATA code : AGF


LFBA - Agen

CURRENT METAR :
  • 221030Z AUTO 11008KT 9999 OVC036 11/08 Q1025 TEMPO 09015G25KT

EXPIRED METARs :
  • 221000Z AUTO 08005KT 040V110 9999 OVC038/// ///TCU 10/07 Q1025 TEMPO 09015G25KT BECMG BKN030
  • 220930Z AUTO 10006KT 060V140 9999 -RA BKN040/// OVC064/// ///CB 10/06 Q1025 TEMPO 09015G25KT BECMG BKN030
  • 220900Z AUTO 10013KT 9999 RA FEW028/// BKN036/// OVC064/// ///CB 10/04 Q1026 TEMPO 09015G25KT 4000 RA BECMG BKN030
  • 220830Z AUTO 10010KT 070V130 9999 SCT038/// BKN045/// BKN076/// ///CB 11/04 Q1025 TEMPO 09015G25KT BECMG BKN030
  • 220800Z AUTO 10009KT 9999 FEW042/// SCT084/// BKN150/// ///TCU 11/04 Q1025 TEMPO 09015G25KT 4000 -RA BECMG BKN030

TAF AMD TAF LFBA
Valid from the 22 at 09:00 until the 22 at 18:00 UTC


220958Z 2209/2218 07010KT 9999 BKN030
PROB40
TEMPO 2210/2211 4000 RA BKN020 SCT035TCU
TEMPO 2209/2215 09015G25KT
TEMPO 2214/2215 3000 -RA BKN015



MET'MAP, your aeronautical weather chart ! - Copyright ORBIFLY December 2007 - Disclaimer

ORBIFLY MET'MAP TEAM :

Programming & Development : Alexandra Zaïnal
Concept & original design : Baudouin d'Aumeries
Assistance for programming : Marc-Olivier Méhu
Technical & hardware support : Manuel Goepfert

Contact : metmap@orbifly.com




SOURCES & CREDITS :

   NOAA